createdAt,value
2018-08-30T00:01:45.886Z,100938.21
2018-08-30T00:04:14.128Z,100932.69
2018-08-30T00:06:42.353Z,100947.62
2018-08-30T00:09:10.561Z,100945.81
2018-08-30T00:11:38.816Z,100949.59
2018-08-30T00:14:07.026Z,100948.92
2018-08-30T00:16:35.299Z,100964.98
2018-08-30T00:19:03.568Z,100966.11
2018-08-30T00:21:31.849Z,100976.22
2018-08-30T00:24:00.082Z,100973.44
2018-08-30T00:26:28.286Z,100981.55
2018-08-30T00:28:56.521Z,100987.32
2018-08-30T00:31:24.729Z,100995.01
2018-08-30T00:33:53.821Z,100994.38
2018-08-30T00:36:22.085Z,100999.42
2018-08-30T00:38:50.344Z,100999.91
2018-08-30T00:41:18.665Z,101000.58
2018-08-30T00:43:46.814Z,100992.78
2018-08-30T00:46:15.057Z,101007.13
2018-08-30T00:48:43.277Z,101007.27
2018-08-30T00:51:11.490Z,101005.97
2018-08-30T00:53:39.734Z,101004.95
2018-08-30T00:56:07.929Z,101012.08
2018-08-30T00:58:36.150Z,101019.93
2018-08-30T01:01:04.446Z,101015.38
2018-08-30T01:03:32.685Z,101012.72
2018-08-30T01:06:01.148Z,101017.34
2018-08-30T01:08:29.386Z,101017.45
2018-08-30T01:10:57.601Z,101017.41
2018-08-30T01:13:25.840Z,101018.80
2018-08-30T01:15:54.049Z,101026.19
2018-08-30T01:18:22.432Z,101032.02
2018-08-30T01:20:50.659Z,101026.77
2018-08-30T01:23:18.883Z,101021.77
2018-08-30T01:25:47.138Z,101029.20
2018-08-30T01:28:15.362Z,101040.85
2018-08-30T01:30:43.630Z,101038.81
2018-08-30T01:33:11.902Z,101037.10
2018-08-30T01:35:40.082Z,101035.74
2018-08-30T01:38:08.301Z,101040.55
2018-08-30T01:40:36.517Z,101040.30
2018-08-30T01:43:05.010Z,101035.66
2018-08-30T01:45:33.283Z,101046.68
2018-08-30T01:48:01.537Z,101053.32
2018-08-30T01:50:29.841Z,101053.45
2018-08-30T01:52:58.088Z,101056.58
2018-08-30T01:55:26.326Z,101057.83
2018-08-30T01:57:54.548Z,101051.91
2018-08-30T02:00:22.794Z,101054.98
2018-08-30T02:02:51.015Z,101050.66
2018-08-30T02:05:19.239Z,101059.00
2018-08-30T02:07:47.442Z,101065.39
2018-08-30T02:10:15.690Z,101066.04
2018-08-30T02:12:43.907Z,101076.58
2018-08-30T02:15:12.174Z,101066.09
2018-08-30T02:17:40.414Z,101081.32
2018-08-30T02:20:08.666Z,101083.24
2018-08-30T02:22:36.884Z,101084.94
2018-08-30T02:25:05.165Z,101083.84
2018-08-30T02:27:33.388Z,101086.30
2018-08-30T02:30:01.635Z,101091.16
2018-08-30T02:32:29.845Z,101088.22
2018-08-30T02:34:58.088Z,101093.80
2018-08-30T02:37:26.326Z,101092.91
2018-08-30T02:39:54.556Z,101094.98
2018-08-30T02:42:22.874Z,101093.66
2018-08-30T02:44:51.096Z,101098.41
2018-08-30T02:47:19.313Z,101093.73
2018-08-30T02:49:47.532Z,101098.80
2018-08-30T02:52:15.752Z,101105.02
2018-08-30T02:54:44.016Z,101100.11
2018-08-30T02:57:12.247Z,101099.41
2018-08-30T02:59:40.472Z,101103.92
2018-08-30T03:02:08.741Z,101100.33
2018-08-30T03:04:36.962Z,101105.83
2018-08-30T03:07:05.187Z,101102.35
2018-08-30T03:09:33.407Z,101102.41
2018-08-30T03:12:01.635Z,101101.72
2018-08-30T03:14:29.849Z,101095.74
2018-08-30T03:16:58.053Z,101101.84
2018-08-30T03:19:26.267Z,101105.77
2018-08-30T03:21:54.535Z,101107.97
2018-08-30T03:24:22.737Z,101111.25
2018-08-30T03:26:50.964Z,101110.03
2018-08-30T03:29:19.169Z,101111.52
2018-08-30T03:31:47.420Z,101107.03
2018-08-30T03:34:15.670Z,101118.06
2018-08-30T03:36:43.899Z,101117.45
2018-08-30T03:39:12.101Z,101122.13
2018-08-30T03:41:40.347Z,101125.48
2018-08-30T03:44:08.574Z,101129.59
2018-08-30T03:46:36.793Z,101132.72
2018-08-30T03:49:05.406Z,101133.10
2018-08-30T03:51:33.646Z,101136.05
2018-08-30T03:54:01.890Z,101139.41
2018-08-30T03:56:30.135Z,101133.69
2018-08-30T03:58:58.378Z,101131.84
2018-08-30T04:01:26.604Z,101127.13
2018-08-30T04:03:54.825Z,101135.42
2018-08-30T04:06:23.038Z,101132.73
2018-08-30T04:08:51.301Z,101129.48
2018-08-30T04:11:19.510Z,101132.66
2018-08-30T04:13:47.741Z,101147.39
2018-08-30T04:16:15.965Z,101146.73
2018-08-30T04:18:44.181Z,101151.72
2018-08-30T04:21:12.430Z,101159.01
2018-08-30T04:23:40.642Z,101158.64
2018-08-30T04:26:08.862Z,101160.56
2018-08-30T04:28:37.056Z,101161.00
2018-08-30T04:31:05.455Z,101169.02
2018-08-30T04:33:33.692Z,101166.81
2018-08-30T04:36:01.915Z,101174.55
2018-08-30T04:38:30.122Z,101170.17
2018-08-30T04:40:58.340Z,101173.83
2018-08-30T04:43:26.567Z,101176.44
2018-08-30T04:45:54.809Z,101180.17
2018-08-30T04:48:23.071Z,101178.62
2018-08-30T04:50:51.286Z,101184.31
2018-08-30T04:53:19.505Z,101186.33
2018-08-30T04:55:47.709Z,101188.84
2018-08-30T04:58:16.110Z,101187.27
2018-08-30T05:00:44.356Z,101188.63
2018-08-30T05:03:12.588Z,101185.63
2018-08-30T05:05:40.798Z,101203.05
2018-08-30T05:08:09.027Z,101203.98
2018-08-30T05:10:37.285Z,101208.88
2018-08-30T05:13:05.543Z,101205.92
2018-08-30T05:15:33.781Z,101214.46
2018-08-30T05:18:02.035Z,101217.03
2018-08-30T05:20:30.258Z,101215.33
2018-08-30T05:22:58.505Z,101218.44
2018-08-30T05:25:26.710Z,101220.63
2018-08-30T05:27:54.927Z,101217.95
2018-08-30T05:30:23.418Z,101224.50
2018-08-30T05:32:51.649Z,101226.41
2018-08-30T05:35:19.883Z,101225.16
2018-08-30T05:37:48.101Z,101226.02
2018-08-30T05:40:16.326Z,101235.64
2018-08-30T05:42:44.542Z,101233.19
2018-08-30T05:45:12.779Z,101238.77
2018-08-30T05:47:40.993Z,101236.12
2018-08-30T05:50:09.218Z,101235.67
2018-08-30T05:52:37.446Z,101235.73
2018-08-30T05:55:05.678Z,101237.42
2018-08-30T05:57:33.937Z,101242.69
2018-08-30T06:00:02.407Z,101245.08
2018-08-30T06:02:30.670Z,101248.31
2018-08-30T06:04:59.429Z,101253.50
2018-08-30T06:07:27.881Z,101258.91
2018-08-30T06:09:56.054Z,101251.14
2018-08-30T06:12:24.345Z,101261.64
2018-08-30T06:14:52.594Z,101254.97
2018-08-30T06:17:20.817Z,101257.27
2018-08-30T06:19:49.026Z,101259.25
2018-08-30T06:22:17.246Z,101261.16
2018-08-30T06:24:45.481Z,101257.20
2018-08-30T06:27:13.702Z,101262.46
2018-08-30T06:29:41.950Z,101264.31
2018-08-30T06:32:10.193Z,101263.53
2018-08-30T06:34:38.453Z,101264.79
2018-08-30T06:37:06.693Z,101262.98
2018-08-30T06:39:35.012Z,101266.09
2018-08-30T06:42:03.217Z,101256.96
2018-08-30T06:44:31.639Z,101265.80
2018-08-30T06:46:59.899Z,101266.91
2018-08-30T06:49:28.113Z,101265.96
2018-08-30T06:51:56.326Z,101272.65
2018-08-30T06:54:24.577Z,101270.14
2018-08-30T06:56:52.825Z,101274.22
2018-08-30T06:59:21.037Z,101279.64
2018-08-30T07:01:49.273Z,101287.20
2018-08-30T07:04:17.610Z,101282.15
2018-08-30T07:06:45.727Z,101276.64
2018-08-30T07:09:13.953Z,101280.58
2018-08-30T07:11:42.186Z,101274.53
2018-08-30T07:14:10.504Z,101282.23
2018-08-30T07:16:38.738Z,101288.33
2018-08-30T07:19:06.962Z,101283.43
2018-08-30T07:21:35.191Z,101292.78
2018-08-30T07:24:03.402Z,101291.22
2018-08-30T07:26:31.641Z,101303.04
2018-08-30T07:28:59.879Z,101305.59
2018-08-30T07:31:28.130Z,101298.65
2018-08-30T07:33:56.351Z,101316.32
2018-08-30T07:36:24.684Z,101307.08
2018-08-30T07:38:52.959Z,101311.66
2018-08-30T07:41:21.189Z,101315.34
2018-08-30T07:43:49.448Z,101317.03
2018-08-30T07:46:17.684Z,101317.08
2018-08-30T07:48:45.903Z,101324.14
2018-08-30T07:51:14.365Z,101333.83
2018-08-30T07:53:42.601Z,101333.64
2018-08-30T07:56:10.943Z,101336.16
2018-08-30T07:58:39.161Z,101341.86
2018-08-30T08:01:07.374Z,101343.92
2018-08-30T08:03:35.730Z,101354.38
2018-08-30T08:06:04.123Z,101351.75
2018-08-30T08:08:32.326Z,101354.39
2018-08-30T08:11:00.554Z,101355.64
2018-08-30T08:13:28.761Z,101356.45
2018-08-30T08:15:59.087Z,101353.97
2018-08-30T08:18:27.426Z,101358.99
2018-08-30T08:20:55.669Z,101359.61
2018-08-30T08:23:23.931Z,101360.52
2018-08-30T08:25:52.141Z,101360.41
2018-08-30T08:28:20.370Z,101362.16
2018-08-30T08:30:48.606Z,101362.66
2018-08-30T08:33:16.817Z,101365.65
2018-08-30T08:35:45.033Z,101371.69
2018-08-30T08:38:13.297Z,101372.52
2018-08-30T08:40:41.514Z,101374.48
2018-08-30T08:43:09.768Z,101370.97
2018-08-30T08:45:38.044Z,101378.02
2018-08-30T08:48:06.319Z,101378.85
2018-08-30T08:50:34.547Z,101371.30
2018-08-30T08:53:02.846Z,101370.55
2018-08-30T08:55:31.097Z,101372.73
2018-08-30T08:57:59.361Z,101366.25
2018-08-30T09:00:27.572Z,101378.63
2018-08-30T09:02:55.814Z,101369.11
2018-08-30T09:05:24.059Z,101369.23
2018-08-30T09:07:52.298Z,101366.15
2018-08-30T09:10:20.535Z,101359.68
2018-08-30T09:12:48.784Z,101370.98
2018-08-30T09:15:17.035Z,101364.78
2018-08-30T09:17:45.291Z,101367.69
2018-08-30T09:20:13.532Z,101374.50
2018-08-30T09:22:41.758Z,101370.29
2018-08-30T09:25:09.997Z,101380.15
2018-08-30T09:27:38.231Z,101371.98
2018-08-30T09:30:06.541Z,101370.80
2018-08-30T09:32:34.802Z,101368.26
2018-08-30T09:35:03.062Z,101380.67
2018-08-30T09:37:31.319Z,101385.54
2018-08-30T09:39:59.761Z,101390.39
2018-08-30T09:42:27.967Z,101386.75
2018-08-30T09:44:56.181Z,101381.77
2018-08-30T09:47:24.390Z,101380.77
2018-08-30T09:49:52.670Z,101375.38
2018-08-30T09:52:20.842Z,101376.01
2018-08-30T09:54:49.097Z,101375.97
2018-08-30T09:57:17.559Z,101377.72
2018-08-30T09:59:45.522Z,101375.25
2018-08-30T10:02:18.865Z,101375.70
2018-08-30T10:04:47.216Z,101373.58
2018-08-30T10:07:15.426Z,101368.52
2018-08-30T10:09:43.648Z,101364.00
2018-08-30T10:12:11.866Z,101374.74
2018-08-30T10:14:40.079Z,101369.70
2018-08-30T10:17:08.298Z,101372.86
2018-08-30T10:19:36.698Z,101369.31
2018-08-30T10:22:05.075Z,101373.06
2018-08-30T10:24:33.284Z,101378.71
2018-08-30T10:27:01.498Z,101398.42
2018-08-30T10:29:29.737Z,101399.95
2018-08-30T10:31:58.058Z,101398.38
2018-08-30T10:34:26.346Z,101396.95
2018-08-30T10:36:54.626Z,101390.55
2018-08-30T10:39:22.850Z,101381.48
2018-08-30T10:41:51.105Z,101388.33
2018-08-30T10:44:19.329Z,101379.19
2018-08-30T10:46:47.570Z,101382.08
2018-08-30T10:49:16.150Z,101383.95
2018-08-30T10:51:44.385Z,101372.78
2018-08-30T10:54:12.633Z,101379.29
2018-08-30T10:56:40.889Z,101382.34
2018-08-30T10:59:09.454Z,101381.63
2018-08-30T11:01:37.694Z,101375.56
2018-08-30T11:04:06.454Z,101386.59
2018-08-30T11:06:34.694Z,101383.99
2018-08-30T11:09:03.040Z,101402.77
2018-08-30T11:11:31.217Z,101386.39
2018-08-30T11:13:59.442Z,101399.02
2018-08-30T11:16:27.648Z,101394.05
2018-08-30T11:18:55.962Z,101403.02
2018-08-30T11:21:24.184Z,101397.58
2018-08-30T11:23:52.494Z,101391.44
2018-08-30T11:26:20.738Z,101393.55
2018-08-30T11:28:48.982Z,101399.70
2018-08-30T11:31:17.206Z,101405.88
2018-08-30T11:33:45.503Z,101404.64
2018-08-30T11:36:13.776Z,101401.80
2018-08-30T11:38:42.001Z,101403.49
2018-08-30T11:41:10.217Z,101412.55
2018-08-30T11:43:38.517Z,101406.49
2018-08-30T11:46:06.747Z,101408.54
2018-08-30T11:48:35.053Z,101405.11
2018-08-30T11:51:03.350Z,101410.77
2018-08-30T11:53:31.649Z,101411.19
2018-08-30T11:55:59.914Z,101399.86
2018-08-30T11:58:28.144Z,101409.09
2018-08-30T12:00:56.458Z,101406.41
2018-08-30T12:03:24.665Z,101403.35
2018-08-30T12:05:53.441Z,101403.59
2018-08-30T12:08:21.743Z,101405.06
2018-08-30T12:10:50.016Z,101408.63
2018-08-30T12:13:18.170Z,101411.34
2018-08-30T12:15:46.435Z,101422.26
2018-08-30T12:18:14.747Z,101412.59
2018-08-30T12:20:43.064Z,101423.36
2018-08-30T12:23:11.201Z,101426.02
2018-08-30T12:25:39.434Z,101416.66
2018-08-30T12:28:07.744Z,101413.67
2018-08-30T12:30:36.003Z,101427.65
2018-08-30T12:33:04.227Z,101422.10
2018-08-30T12:35:32.526Z,101420.98
2018-08-30T12:38:00.785Z,101418.20
2018-08-30T12:40:29.058Z,101429.13
2018-08-30T12:42:57.452Z,101426.63
2018-08-30T12:45:25.470Z,101424.80
2018-08-30T12:47:54.834Z,101431.91
2018-08-30T12:50:23.183Z,101431.51
2018-08-30T12:52:51.465Z,101426.71
2018-08-30T12:55:19.659Z,101428.67
2018-08-30T12:57:47.918Z,101436.59
2018-08-30T13:00:16.151Z,101436.53
2018-08-30T13:02:44.415Z,101433.91
2018-08-30T13:05:12.781Z,101426.52
2018-08-30T13:07:40.949Z,101428.13
2018-08-30T13:10:09.343Z,101425.90
2018-08-30T13:12:37.604Z,101436.50
2018-08-30T13:15:05.911Z,101420.66
2018-08-30T13:17:34.168Z,101420.08
2018-08-30T13:20:02.449Z,101425.31
2018-08-30T13:22:30.767Z,101425.88
2018-08-30T13:24:59.003Z,101437.68
2018-08-30T13:27:27.137Z,101421.91
2018-08-30T13:29:55.335Z,101423.11
2018-08-30T13:32:23.868Z,101418.53
2018-08-30T13:34:52.154Z,101419.20
2018-08-30T13:37:20.262Z,101417.56
2018-08-30T13:39:48.509Z,101425.94
2018-08-30T13:42:16.988Z,101423.75
2018-08-30T13:44:45.069Z,101428.11
2018-08-30T13:47:13.192Z,101420.33
2018-08-30T13:49:41.283Z,101428.59
2018-08-30T13:52:10.750Z,101418.20
2018-08-30T13:54:38.858Z,101421.84
2018-08-30T13:57:07.408Z,101429.13
2018-08-30T13:59:36.352Z,101421.23
2018-08-30T14:02:03.930Z,101425.19
2018-08-30T14:04:32.195Z,101427.53
2018-08-30T14:07:00.552Z,101421.16
2018-08-30T14:09:28.668Z,101444.58
2018-08-30T14:11:56.974Z,101435.02
2018-08-30T14:14:25.023Z,101433.27
2018-08-30T14:16:52.969Z,101425.41
2018-08-30T14:19:21.216Z,101429.55
2018-08-30T14:21:49.410Z,101430.08
2018-08-30T14:24:17.673Z,101435.12
2018-08-30T14:26:45.909Z,101431.61
2018-08-30T14:29:14.106Z,101440.66
2018-08-30T14:31:42.354Z,101433.42
2018-08-30T14:34:10.561Z,101440.58
2018-08-30T14:36:39.018Z,101440.98
2018-08-30T14:39:08.869Z,101423.48
2018-08-30T14:41:37.094Z,101432.41
2018-08-30T14:44:05.342Z,101438.47
2018-08-30T14:46:33.713Z,101441.52
2018-08-30T14:49:01.816Z,101424.07
2018-08-30T14:51:30.233Z,101430.38
2018-08-30T14:53:58.728Z,101432.59
2018-08-30T14:56:26.877Z,101420.34
2018-08-30T14:58:55.155Z,101424.70
2018-08-30T15:01:23.472Z,101417.13
2018-08-30T15:03:51.658Z,101422.12
2018-08-30T15:06:19.873Z,101421.45
2018-08-30T15:08:48.078Z,101417.41
2018-08-30T15:11:16.349Z,101419.59
2018-08-30T15:13:44.577Z,101424.02
2018-08-30T15:16:12.790Z,101418.98
2018-08-30T15:18:41.002Z,101418.89
2018-08-30T15:21:09.216Z,101427.26
2018-08-30T15:23:37.539Z,101421.88
2018-08-30T15:26:05.707Z,101424.91
2018-08-30T15:28:33.930Z,101416.25
2018-08-30T15:31:02.189Z,101429.00
2018-08-30T15:33:30.449Z,101428.66
2018-08-30T15:35:58.669Z,101427.68
2018-08-30T15:38:26.893Z,101432.02
2018-08-30T15:40:55.146Z,101433.33
2018-08-30T15:43:23.349Z,101434.08
2018-08-30T15:45:51.578Z,101433.13
2018-08-30T15:48:19.857Z,101425.67
2018-08-30T15:50:47.985Z,101429.67
2018-08-30T15:53:16.280Z,101438.07
2018-08-30T15:55:44.530Z,101432.81
2018-08-30T15:58:12.830Z,101426.98
2018-08-30T16:00:41.042Z,101426.52
2018-08-30T16:03:09.272Z,101425.14
2018-08-30T16:05:37.477Z,101422.70
2018-08-30T16:08:05.738Z,101429.77
2018-08-30T16:10:34.006Z,101428.79
2018-08-30T16:13:02.315Z,101427.58
2018-08-30T16:15:30.457Z,101427.13
2018-08-30T16:17:58.741Z,101431.88
2018-08-30T16:20:26.991Z,101431.59
2018-08-30T16:23:02.909Z,101429.41
2018-08-30T16:25:31.074Z,101425.06
2018-08-30T16:32:54.073Z,101430.35
2018-08-30T16:35:22.480Z,101427.42
2018-08-30T16:37:50.579Z,101432.39
2018-08-30T16:40:19.258Z,101429.95
2018-08-30T16:42:47.488Z,101427.76
2018-08-30T16:45:15.693Z,101430.25
2018-08-30T16:47:43.908Z,101423.36
2018-08-30T16:50:12.153Z,101425.16
2018-08-30T16:52:40.465Z,101427.89
2018-08-30T16:55:08.710Z,101428.22
2018-08-30T16:57:37.021Z,101419.97
2018-08-30T17:00:05.305Z,101420.20
2018-08-30T17:02:33.542Z,101422.03
2018-08-30T17:05:01.793Z,101408.55
2018-08-30T17:07:30.043Z,101416.30
2018-08-30T17:09:58.313Z,101414.14
2018-08-30T17:12:26.553Z,101416.59
2018-08-30T17:14:54.784Z,101420.59
2018-08-30T17:17:23.001Z,101418.84
2018-08-30T17:19:51.205Z,101417.39
2018-08-30T17:22:19.422Z,101413.78
2018-08-30T17:24:47.621Z,101414.56
2018-08-30T17:27:15.871Z,101423.56
2018-08-30T17:29:44.095Z,101414.82
2018-08-30T17:32:12.386Z,101419.09
2018-08-30T17:34:40.607Z,101411.96
2018-08-30T17:37:08.864Z,101415.14
2018-08-30T17:39:37.055Z,101423.98
2018-08-30T17:42:05.299Z,101421.16
2018-08-30T17:44:33.570Z,101422.69
2018-08-30T17:47:01.805Z,101425.25
2018-08-30T17:49:30.041Z,101430.47
2018-08-30T17:51:58.318Z,101431.09
2018-08-30T17:54:26.539Z,101428.45
2018-08-30T17:56:54.769Z,101429.09
2018-08-30T17:59:22.994Z,101425.40
2018-08-30T18:01:51.238Z,101439.93
2018-08-30T18:04:19.489Z,101436.03
2018-08-30T18:06:47.766Z,101443.77
2018-08-30T18:09:15.914Z,101443.35
2018-08-30T18:11:44.133Z,101440.86
2018-08-30T18:14:12.422Z,101446.95
2018-08-30T18:16:40.843Z,101443.75
2018-08-30T18:19:09.062Z,101452.73
2018-08-30T18:21:37.263Z,101449.55
2018-08-30T18:24:05.609Z,101452.02
2018-08-30T18:26:33.788Z,101447.90
2018-08-30T18:29:02.018Z,101454.16
2018-08-30T18:31:30.257Z,101460.55
2018-08-30T18:33:58.459Z,101464.19
2018-08-30T18:36:26.727Z,101455.97
2018-08-30T18:38:54.961Z,101466.90
2018-08-30T18:41:23.228Z,101465.45
2018-08-30T18:43:51.427Z,101471.88
2018-08-30T18:46:19.698Z,101464.80
2018-08-30T18:48:47.907Z,101471.41
2018-08-30T18:51:16.125Z,101480.08
2018-08-30T18:53:44.333Z,101474.55
2018-08-30T18:56:12.570Z,101475.84
2018-08-30T18:58:40.801Z,101488.52
2018-08-30T19:01:09.010Z,101486.41
2018-08-30T19:03:37.385Z,101480.31
2018-08-30T19:06:05.641Z,101485.22
2018-08-30T19:08:34.039Z,101489.52
2018-08-30T19:11:02.241Z,101487.72
2018-08-30T19:13:30.498Z,101487.19
2018-08-30T19:16:03.959Z,101493.56
2018-08-30T19:18:37.761Z,101493.47
2018-08-30T19:21:06.202Z,101497.17
2018-08-30T19:23:34.965Z,101504.48
2018-08-30T19:26:03.175Z,101505.52
2018-08-30T19:28:31.398Z,101501.11
2018-08-30T19:30:59.614Z,101507.25
2018-08-30T19:33:27.845Z,101506.38
2018-08-30T19:36:01.584Z,101508.41
2018-08-30T19:38:29.830Z,101509.77
2018-08-30T19:41:03.439Z,101512.34
2018-08-30T19:43:32.773Z,101510.27
2018-08-30T19:46:00.985Z,101509.97
2018-08-30T19:48:29.250Z,101514.91
2018-08-30T19:51:02.440Z,101514.97
2018-08-30T19:53:30.761Z,101509.23
2018-08-30T19:55:58.986Z,101512.07
2018-08-30T19:58:29.198Z,101510.38
2018-08-30T20:00:57.451Z,101507.82
2018-08-30T20:03:25.721Z,101508.57
2018-08-30T20:05:53.949Z,101509.61
2018-08-30T20:08:22.402Z,101507.27
2018-08-30T20:10:50.614Z,101507.38
2018-08-30T20:13:19.233Z,101507.53
2018-08-30T20:15:47.793Z,101510.77
2018-08-30T20:18:16.022Z,101501.80
2018-08-30T20:20:44.265Z,101505.02
2018-08-30T20:23:12.490Z,101503.38
2018-08-30T20:25:40.731Z,101506.98
2018-08-30T20:28:08.941Z,101504.30
2018-08-30T20:30:37.197Z,101505.66
2018-08-30T20:33:05.700Z,101498.56
2018-08-30T20:35:33.930Z,101505.17
2018-08-30T20:38:02.193Z,101504.30
2018-08-30T20:40:30.478Z,101508.42
2018-08-30T20:42:58.905Z,101510.57
2018-08-30T20:45:27.138Z,101517.22
2018-08-30T20:47:55.361Z,101524.34
2018-08-30T20:50:23.581Z,101518.58
2018-08-30T20:52:51.805Z,101519.71
2018-08-30T20:55:20.042Z,101526.49
2018-08-30T20:57:48.493Z,101526.70
2018-08-30T21:00:16.797Z,101520.90
2018-08-30T21:02:44.978Z,101517.78
2018-08-30T21:05:13.201Z,101527.02
2018-08-30T21:07:41.402Z,101524.17
2018-08-30T21:10:09.706Z,101529.65
2018-08-30T21:12:37.911Z,101528.58
2018-08-30T21:15:06.862Z,101536.31
2018-08-30T21:17:35.089Z,101532.02
2018-08-30T21:20:03.413Z,101527.61
2018-08-30T21:22:31.639Z,101528.92
2018-08-30T21:24:59.850Z,101526.19
2018-08-30T21:27:28.082Z,101537.23
2018-08-30T21:29:56.265Z,101529.77
2018-08-30T21:32:24.513Z,101529.84
2018-08-30T21:34:52.730Z,101530.31
2018-08-30T21:37:20.950Z,101532.45
2018-08-30T21:39:49.162Z,101532.02
2018-08-30T21:42:17.387Z,101532.97
2018-08-30T21:44:45.593Z,101541.92
2018-08-30T21:47:13.807Z,101538.87
2018-08-30T21:49:42.004Z,101538.67
2018-08-30T21:52:10.279Z,101544.95
2018-08-30T21:54:38.494Z,101540.14
2018-08-30T21:57:06.722Z,101548.44
2018-08-30T21:59:34.958Z,101553.49
2018-08-30T22:02:03.162Z,101551.78
2018-08-30T22:04:31.373Z,101553.33
2018-08-30T22:06:59.581Z,101556.88
2018-08-30T22:09:27.802Z,101559.39
2018-08-30T22:11:56.022Z,101559.47
2018-08-30T22:14:24.236Z,101561.41
2018-08-30T22:16:52.463Z,101557.38
2018-08-30T22:19:20.693Z,101556.53
2018-08-30T22:21:48.899Z,101562.83
2018-08-30T22:24:17.128Z,101553.93
2018-08-30T22:26:45.333Z,101555.80
2018-08-30T22:29:13.547Z,101561.02
2018-08-30T22:31:41.766Z,101560.45
2018-08-30T22:34:09.962Z,101560.42
2018-08-30T22:36:38.186Z,101563.38
2018-08-30T22:39:07.410Z,101562.69
2018-08-30T22:41:35.635Z,101562.55
2018-08-30T22:44:03.832Z,101559.09
2018-08-30T22:46:32.061Z,101566.86
2018-08-30T22:49:00.286Z,101563.97
2018-08-30T22:51:28.518Z,101562.58
2018-08-30T22:53:56.745Z,101554.86
2018-08-30T22:56:24.978Z,101558.73
2018-08-30T22:58:53.178Z,101561.56
2018-08-30T23:01:21.386Z,101558.83
2018-08-30T23:03:49.601Z,101552.72
2018-08-30T23:06:17.808Z,101559.23
2018-08-30T23:08:46.019Z,101551.05
2018-08-30T23:11:14.259Z,101547.03
2018-08-30T23:13:42.477Z,101550.16
2018-08-30T23:16:10.715Z,101550.73
2018-08-30T23:18:38.941Z,101551.48
2018-08-30T23:21:07.217Z,101554.08
2018-08-30T23:23:35.430Z,101551.05
2018-08-30T23:26:03.642Z,101543.27
2018-08-30T23:28:31.869Z,101547.89
2018-08-30T23:31:00.102Z,101544.55
2018-08-30T23:33:28.310Z,101547.21
2018-08-30T23:35:56.545Z,101542.89
2018-08-30T23:38:24.766Z,101552.03
2018-08-30T23:40:52.983Z,101550.73
2018-08-30T23:43:21.209Z,101554.66
2018-08-30T23:45:49.414Z,101547.33
2018-08-30T23:48:17.658Z,101554.30
2018-08-30T23:50:45.882Z,101538.66
2018-08-30T23:53:14.096Z,101548.69
2018-08-30T23:55:42.342Z,101549.48
2018-08-30T23:58:21.836Z,101545.59
